sensor_id;sensor_type;location;lat;lon;timestamp;P1;durP1;ratioP1;P2;durP2;ratioP2
42988;SDS011;28622;43.716;20.668;2022-10-16T00:01:09;14.93;;;5.85;;
42988;SDS011;28622;43.716;20.668;2022-10-16T00:03:39;7.60;;;3.72;;
42988;SDS011;28622;43.716;20.668;2022-10-16T00:06:06;9.63;;;4.97;;
42988;SDS011;28622;43.716;20.668;2022-10-16T00:08:32;10.60;;;5.00;;
42988;SDS011;28622;43.716;20.668;2022-10-16T00:11:21;10.43;;;5.18;;
42988;SDS011;28622;43.716;20.668;2022-10-16T00:13:45;7.80;;;4.07;;
42988;SDS011;28622;43.716;20.668;2022-10-16T00:16:12;10.27;;;4.63;;
42988;SDS011;28622;43.716;20.668;2022-10-16T00:18:38;9.02;;;4.25;;
42988;SDS011;28622;43.716;20.668;2022-10-16T00:21:06;8.50;;;3.72;;
42988;SDS011;28622;43.716;20.668;2022-10-16T00:23:36;7.60;;;4.13;;
42988;SDS011;28622;43.716;20.668;2022-10-16T00:26:03;5.50;;;3.70;;
42988;SDS011;28622;43.716;20.668;2022-10-16T00:28:31;7.18;;;3.40;;
42988;SDS011;28622;43.716;20.668;2022-10-16T00:30:58;8.05;;;3.72;;
42988;SDS011;28622;43.716;20.668;2022-10-16T00:33:24;7.93;;;3.33;;
42988;SDS011;28622;43.716;20.668;2022-10-16T00:35:49;4.82;;;2.58;;
42988;SDS011;28622;43.716;20.668;2022-10-16T00:38:15;7.72;;;2.28;;
42988;SDS011;28622;43.716;20.668;2022-10-16T00:40:42;4.47;;;2.13;;
42988;SDS011;28622;43.716;20.668;2022-10-16T00:43:54;4.43;;;2.78;;
42988;SDS011;28622;43.716;20.668;2022-10-16T00:46:04;8.60;;;3.35;;
42988;SDS011;28622;43.716;20.668;2022-10-16T00:48:35;6.40;;;2.85;;
42988;SDS011;28622;43.716;20.668;2022-10-16T00:51:01;8.80;;;3.30;;
42988;SDS011;28622;43.716;20.668;2022-10-16T00:53:27;5.00;;;2.78;;
42988;SDS011;28622;43.716;20.668;2022-10-16T00:55:53;4.57;;;3.17;;
42988;SDS011;28622;43.716;20.668;2022-10-16T00:58:19;6.55;;;3.35;;
42988;SDS011;28622;43.716;20.668;2022-10-16T01:00:46;5.88;;;3.78;;
42988;SDS011;28622;43.716;20.668;2022-10-16T01:05:57;7.53;;;3.40;;
42988;SDS011;28622;43.716;20.668;2022-10-16T01:08:32;5.53;;;3.00;;
42988;SDS011;28622;43.716;20.668;2022-10-16T01:11:38;6.32;;;3.05;;
42988;SDS011;28622;43.716;20.668;2022-10-16T01:14:40;6.72;;;3.22;;
42988;SDS011;28622;43.716;20.668;2022-10-16T01:17:28;9.40;;;3.90;;
42988;SDS011;28622;43.716;20.668;2022-10-16T01:20:07;4.45;;;2.97;;
42988;SDS011;28622;43.716;20.668;2022-10-16T01:28:21;7.90;;;3.38;;
42988;SDS011;28622;43.716;20.668;2022-10-16T01:30:51;6.60;;;3.85;;
42988;SDS011;28622;43.716;20.668;2022-10-16T01:33:20;5.03;;;2.42;;
42988;SDS011;28622;43.716;20.668;2022-10-16T01:35:52;8.30;;;3.20;;
42988;SDS011;28622;43.716;20.668;2022-10-16T01:38:22;10.68;;;4.05;;
42988;SDS011;28622;43.716;20.668;2022-10-16T01:40:57;8.98;;;4.25;;
42988;SDS011;28622;43.716;20.668;2022-10-16T01:43:31;5.25;;;3.15;;
42988;SDS011;28622;43.716;20.668;2022-10-16T01:48:27;6.70;;;3.40;;
42988;SDS011;28622;43.716;20.668;2022-10-16T01:51:05;6.38;;;3.13;;
42988;SDS011;28622;43.716;20.668;2022-10-16T01:53:33;6.07;;;3.30;;
42988;SDS011;28622;43.716;20.668;2022-10-16T01:55:59;5.07;;;3.30;;
42988;SDS011;28622;43.716;20.668;2022-10-16T01:58:27;6.60;;;3.40;;
42988;SDS011;28622;43.716;20.668;2022-10-16T02:03:25;5.00;;;2.78;;
42988;SDS011;28622;43.716;20.668;2022-10-16T02:05:52;9.90;;;2.97;;
42988;SDS011;28622;43.716;20.668;2022-10-16T02:08:23;7.15;;;3.60;;
42988;SDS011;28622;43.716;20.668;2022-10-16T02:10:53;6.43;;;2.65;;
42988;SDS011;28622;43.716;20.668;2022-10-16T02:13:24;9.80;;;3.25;;
42988;SDS011;28622;43.716;20.668;2022-10-16T02:15:57;4.80;;;2.58;;
42988;SDS011;28622;43.716;20.668;2022-10-16T02:18:23;7.05;;;2.78;;
42988;SDS011;28622;43.716;20.668;2022-10-16T02:23:37;4.55;;;2.90;;
42988;SDS011;28622;43.716;20.668;2022-10-16T02:26:30;5.28;;;3.05;;
42988;SDS011;28622;43.716;20.668;2022-10-16T02:29:12;6.43;;;3.25;;
42988;SDS011;28622;43.716;20.668;2022-10-16T02:31:42;5.97;;;3.28;;
42988;SDS011;28622;43.716;20.668;2022-10-16T02:34:12;5.35;;;2.58;;
42988;SDS011;28622;43.716;20.668;2022-10-16T02:36:39;4.75;;;2.45;;
42988;SDS011;28622;43.716;20.668;2022-10-16T02:39:07;3.85;;;2.53;;
42988;SDS011;28622;43.716;20.668;2022-10-16T02:41:34;6.93;;;3.28;;
42988;SDS011;28622;43.716;20.668;2022-10-16T02:44:00;5.40;;;2.92;;
42988;SDS011;28622;43.716;20.668;2022-10-16T02:46:26;4.88;;;2.55;;
42988;SDS011;28622;43.716;20.668;2022-10-16T02:48:52;13.93;;;3.63;;
42988;SDS011;28622;43.716;20.668;2022-10-16T02:51:17;6.65;;;3.30;;
42988;SDS011;28622;43.716;20.668;2022-10-16T02:53:43;4.63;;;3.13;;
42988;SDS011;28622;43.716;20.668;2022-10-16T02:56:09;7.60;;;3.60;;
42988;SDS011;28622;43.716;20.668;2022-10-16T02:58:35;9.13;;;3.17;;
42988;SDS011;28622;43.716;20.668;2022-10-16T03:01:01;6.07;;;3.53;;
42988;SDS011;28622;43.716;20.668;2022-10-16T03:03:26;6.30;;;3.25;;
42988;SDS011;28622;43.716;20.668;2022-10-16T03:05:52;6.35;;;2.90;;
42988;SDS011;28622;43.716;20.668;2022-10-16T03:08:18;6.15;;;2.60;;
42988;SDS011;28622;43.716;20.668;2022-10-16T03:10:48;10.20;;;3.70;;
42988;SDS011;28622;43.716;20.668;2022-10-16T03:13:14;4.35;;;2.72;;
42988;SDS011;28622;43.716;20.668;2022-10-16T03:15:40;5.20;;;2.70;;
42988;SDS011;28622;43.716;20.668;2022-10-16T03:18:06;6.03;;;2.90;;
42988;SDS011;28622;43.716;20.668;2022-10-16T03:20:32;6.45;;;2.88;;
42988;SDS011;28622;43.716;20.668;2022-10-16T03:22:58;12.32;;;4.55;;
42988;SDS011;28622;43.716;20.668;2022-10-16T03:25:23;7.00;;;3.20;;
42988;SDS011;28622;43.716;20.668;2022-10-16T03:27:50;10.32;;;3.95;;
42988;SDS011;28622;43.716;20.668;2022-10-16T03:30:16;9.10;;;3.10;;
42988;SDS011;28622;43.716;20.668;2022-10-16T03:32:43;8.35;;;3.30;;
42988;SDS011;28622;43.716;20.668;2022-10-16T03:35:10;5.65;;;2.90;;
42988;SDS011;28622;43.716;20.668;2022-10-16T03:37:35;16.95;;;6.03;;
42988;SDS011;28622;43.716;20.668;2022-10-16T03:40:02;10.55;;;4.45;;
42988;SDS011;28622;43.716;20.668;2022-10-16T03:42:28;9.68;;;3.13;;
42988;SDS011;28622;43.716;20.668;2022-10-16T03:44:54;9.55;;;4.15;;
42988;SDS011;28622;43.716;20.668;2022-10-16T03:47:20;9.05;;;4.13;;
42988;SDS011;28622;43.716;20.668;2022-10-16T03:49:48;8.95;;;4.07;;
42988;SDS011;28622;43.716;20.668;2022-10-16T03:52:14;7.60;;;2.95;;
42988;SDS011;28622;43.716;20.668;2022-10-16T03:54:40;9.02;;;3.40;;
42988;SDS011;28622;43.716;20.668;2022-10-16T03:57:05;6.53;;;3.42;;
42988;SDS011;28622;43.716;20.668;2022-10-16T03:59:31;6.32;;;2.72;;
42988;SDS011;28622;43.716;20.668;2022-10-16T04:01:57;6.22;;;2.33;;
42988;SDS011;28622;43.716;20.668;2022-10-16T04:04:22;5.60;;;2.65;;
42988;SDS011;28622;43.716;20.668;2022-10-16T04:06:49;8.02;;;3.00;;
42988;SDS011;28622;43.716;20.668;2022-10-16T04:09:15;5.70;;;2.63;;
42988;SDS011;28622;43.716;20.668;2022-10-16T04:11:41;5.40;;;2.88;;
42988;SDS011;28622;43.716;20.668;2022-10-16T04:14:08;11.55;;;3.95;;
42988;SDS011;28622;43.716;20.668;2022-10-16T04:16:33;7.38;;;3.85;;
42988;SDS011;28622;43.716;20.668;2022-10-16T04:18:59;10.68;;;4.38;;
42988;SDS011;28622;43.716;20.668;2022-10-16T04:21:25;9.20;;;4.30;;
42988;SDS011;28622;43.716;20.668;2022-10-16T04:23:50;8.23;;;3.88;;
42988;SDS011;28622;43.716;20.668;2022-10-16T04:26:16;8.45;;;4.32;;
42988;SDS011;28622;43.716;20.668;2022-10-16T04:28:42;8.52;;;4.10;;
42988;SDS011;28622;43.716;20.668;2022-10-16T04:31:08;6.85;;;3.50;;
42988;SDS011;28622;43.716;20.668;2022-10-16T04:33:34;5.82;;;3.15;;
42988;SDS011;28622;43.716;20.668;2022-10-16T04:36:01;7.00;;;3.28;;
42988;SDS011;28622;43.716;20.668;2022-10-16T04:38:28;5.50;;;2.78;;
42988;SDS011;28622;43.716;20.668;2022-10-16T04:40:54;4.13;;;2.13;;
42988;SDS011;28622;43.716;20.668;2022-10-16T04:43:20;5.43;;;2.55;;
42988;SDS011;28622;43.716;20.668;2022-10-16T04:45:47;4.30;;;2.47;;
42988;SDS011;28622;43.716;20.668;2022-10-16T04:48:12;3.60;;;2.20;;
42988;SDS011;28622;43.716;20.668;2022-10-16T04:50:38;7.35;;;3.00;;
42988;SDS011;28622;43.716;20.668;2022-10-16T04:53:04;5.35;;;2.40;;
42988;SDS011;28622;43.716;20.668;2022-10-16T04:55:31;6.28;;;3.63;;
42988;SDS011;28622;43.716;20.668;2022-10-16T04:57:59;6.53;;;3.17;;
42988;SDS011;28622;43.716;20.668;2022-10-16T05:00:25;5.82;;;2.97;;
42988;SDS011;28622;43.716;20.668;2022-10-16T05:02:51;7.90;;;3.97;;
42988;SDS011;28622;43.716;20.668;2022-10-16T05:05:17;4.10;;;2.83;;
42988;SDS011;28622;43.716;20.668;2022-10-16T05:07:44;5.72;;;3.90;;
42988;SDS011;28622;43.716;20.668;2022-10-16T05:10:11;7.82;;;4.07;;
42988;SDS011;28622;43.716;20.668;2022-10-16T05:12:36;6.82;;;4.32;;
42988;SDS011;28622;43.716;20.668;2022-10-16T05:15:02;5.72;;;2.95;;
42988;SDS011;28622;43.716;20.668;2022-10-16T05:17:29;6.05;;;3.78;;
42988;SDS011;28622;43.716;20.668;2022-10-16T05:19:54;7.63;;;3.83;;
42988;SDS011;28622;43.716;20.668;2022-10-16T05:22:21;8.13;;;3.35;;
42988;SDS011;28622;43.716;20.668;2022-10-16T05:24:46;7.07;;;4.00;;
42988;SDS011;28622;43.716;20.668;2022-10-16T05:27:12;5.78;;;3.85;;
42988;SDS011;28622;43.716;20.668;2022-10-16T05:29:44;10.65;;;4.82;;
42988;SDS011;28622;43.716;20.668;2022-10-16T05:32:17;12.05;;;4.03;;
42988;SDS011;28622;43.716;20.668;2022-10-16T05:34:43;8.02;;;4.28;;
42988;SDS011;28622;43.716;20.668;2022-10-16T05:37:09;11.75;;;5.57;;
42988;SDS011;28622;43.716;20.668;2022-10-16T05:39:36;9.35;;;3.97;;
42988;SDS011;28622;43.716;20.668;2022-10-16T05:42:03;7.43;;;5.10;;
42988;SDS011;28622;43.716;20.668;2022-10-16T05:44:29;12.75;;;4.82;;
42988;SDS011;28622;43.716;20.668;2022-10-16T05:46:55;7.60;;;4.85;;
42988;SDS011;28622;43.716;20.668;2022-10-16T05:49:21;8.82;;;4.53;;
42988;SDS011;28622;43.716;20.668;2022-10-16T05:51:47;7.57;;;4.53;;
42988;SDS011;28622;43.716;20.668;2022-10-16T05:54:13;9.13;;;4.20;;
42988;SDS011;28622;43.716;20.668;2022-10-16T05:56:38;6.30;;;4.10;;
42988;SDS011;28622;43.716;20.668;2022-10-16T05:59:04;11.18;;;4.45;;
42988;SDS011;28622;43.716;20.668;2022-10-16T06:01:30;7.82;;;4.22;;
42988;SDS011;28622;43.716;20.668;2022-10-16T06:03:57;7.70;;;5.20;;
42988;SDS011;28622;43.716;20.668;2022-10-16T06:06:23;7.22;;;4.40;;
42988;SDS011;28622;43.716;20.668;2022-10-16T06:08:51;7.15;;;4.32;;
42988;SDS011;28622;43.716;20.668;2022-10-16T06:11:19;7.38;;;4.78;;
42988;SDS011;28622;43.716;20.668;2022-10-16T06:13:53;10.48;;;5.47;;
42988;SDS011;28622;43.716;20.668;2022-10-16T06:16:21;11.10;;;6.85;;
42988;SDS011;28622;43.716;20.668;2022-10-16T06:18:50;11.18;;;6.25;;
42988;SDS011;28622;43.716;20.668;2022-10-16T06:21:18;10.40;;;5.63;;
42988;SDS011;28622;43.716;20.668;2022-10-16T06:23:50;12.27;;;5.60;;
42988;SDS011;28622;43.716;20.668;2022-10-16T06:26:17;9.77;;;5.95;;
42988;SDS011;28622;43.716;20.668;2022-10-16T06:28:45;11.13;;;5.65;;
42988;SDS011;28622;43.716;20.668;2022-10-16T06:31:11;10.38;;;4.38;;
42988;SDS011;28622;43.716;20.668;2022-10-16T06:33:38;9.77;;;5.85;;
42988;SDS011;28622;43.716;20.668;2022-10-16T06:36:14;9.25;;;5.20;;
42988;SDS011;28622;43.716;20.668;2022-10-16T06:38:42;7.40;;;4.47;;
42988;SDS011;28622;43.716;20.668;2022-10-16T06:41:09;9.95;;;4.65;;
42988;SDS011;28622;43.716;20.668;2022-10-16T06:43:36;7.93;;;4.45;;
42988;SDS011;28622;43.716;20.668;2022-10-16T06:46:03;9.10;;;5.32;;
42988;SDS011;28622;43.716;20.668;2022-10-16T06:48:32;8.43;;;4.95;;
42988;SDS011;28622;43.716;20.668;2022-10-16T06:53:26;7.05;;;3.92;;
42988;SDS011;28622;43.716;20.668;2022-10-16T06:55:54;8.55;;;3.95;;
42988;SDS011;28622;43.716;20.668;2022-10-16T06:58:19;7.55;;;3.53;;
42988;SDS011;28622;43.716;20.668;2022-10-16T07:00:46;8.25;;;4.05;;
42988;SDS011;28622;43.716;20.668;2022-10-16T07:03:12;6.25;;;3.63;;
42988;SDS011;28622;43.716;20.668;2022-10-16T07:05:39;8.50;;;4.13;;
42988;SDS011;28622;43.716;20.668;2022-10-16T07:08:05;8.05;;;5.15;;
42988;SDS011;28622;43.716;20.668;2022-10-16T07:10:32;9.85;;;5.03;;
42988;SDS011;28622;43.716;20.668;2022-10-16T07:12:58;9.48;;;4.35;;
42988;SDS011;28622;43.716;20.668;2022-10-16T07:15:24;9.00;;;4.53;;
42988;SDS011;28622;43.716;20.668;2022-10-16T07:17:51;8.63;;;4.55;;
42988;SDS011;28622;43.716;20.668;2022-10-16T07:20:17;8.88;;;3.78;;
42988;SDS011;28622;43.716;20.668;2022-10-16T07:22:43;9.63;;;3.70;;
42988;SDS011;28622;43.716;20.668;2022-10-16T07:25:08;8.05;;;3.70;;
42988;SDS011;28622;43.716;20.668;2022-10-16T07:27:35;5.68;;;3.70;;
42988;SDS011;28622;43.716;20.668;2022-10-16T07:30:00;6.00;;;4.47;;
42988;SDS011;28622;43.716;20.668;2022-10-16T07:32:26;4.55;;;3.08;;
42988;SDS011;28622;43.716;20.668;2022-10-16T07:34:52;9.55;;;3.97;;
42988;SDS011;28622;43.716;20.668;2022-10-16T07:37:19;7.50;;;3.65;;
42988;SDS011;28622;43.716;20.668;2022-10-16T07:39:45;4.20;;;2.65;;
42988;SDS011;28622;43.716;20.668;2022-10-16T07:42:10;7.55;;;3.42;;
42988;SDS011;28622;43.716;20.668;2022-10-16T07:44:36;5.00;;;2.97;;
42988;SDS011;28622;43.716;20.668;2022-10-16T07:47:02;7.03;;;3.45;;
42988;SDS011;28622;43.716;20.668;2022-10-16T07:49:27;8.07;;;3.55;;
42988;SDS011;28622;43.716;20.668;2022-10-16T07:51:53;5.43;;;2.88;;
42988;SDS011;28622;43.716;20.668;2022-10-16T07:54:19;6.07;;;2.90;;
42988;SDS011;28622;43.716;20.668;2022-10-16T07:56:45;5.50;;;2.97;;
42988;SDS011;28622;43.716;20.668;2022-10-16T07:59:10;7.80;;;3.20;;
42988;SDS011;28622;43.716;20.668;2022-10-16T08:01:36;6.55;;;2.78;;
42988;SDS011;28622;43.716;20.668;2022-10-16T08:04:02;8.68;;;3.05;;
42988;SDS011;28622;43.716;20.668;2022-10-16T08:06:28;8.20;;;3.28;;
42988;SDS011;28622;43.716;20.668;2022-10-16T08:08:55;3.55;;;2.80;;
42988;SDS011;28622;43.716;20.668;2022-10-16T08:11:21;4.53;;;2.60;;
42988;SDS011;28622;43.716;20.668;2022-10-16T08:13:48;6.38;;;3.00;;
42988;SDS011;28622;43.716;20.668;2022-10-16T08:16:14;6.97;;;3.80;;
42988;SDS011;28622;43.716;20.668;2022-10-16T08:18:40;7.25;;;3.50;;
42988;SDS011;28622;43.716;20.668;2022-10-16T08:21:06;6.47;;;3.92;;
42988;SDS011;28622;43.716;20.668;2022-10-16T08:23:36;6.63;;;3.45;;
42988;SDS011;28622;43.716;20.668;2022-10-16T08:26:03;3.88;;;2.38;;
42988;SDS011;28622;43.716;20.668;2022-10-16T08:28:31;4.60;;;2.60;;
42988;SDS011;28622;43.716;20.668;2022-10-16T08:31:04;8.20;;;3.28;;
42988;SDS011;28622;43.716;20.668;2022-10-16T08:33:31;6.45;;;2.17;;
42988;SDS011;28622;43.716;20.668;2022-10-16T08:35:56;4.18;;;2.67;;
42988;SDS011;28622;43.716;20.668;2022-10-16T08:38:22;3.03;;;2.10;;
42988;SDS011;28622;43.716;20.668;2022-10-16T08:40:48;5.05;;;2.33;;
42988;SDS011;28622;43.716;20.668;2022-10-16T08:48:32;5.88;;;2.22;;
42988;SDS011;28622;43.716;20.668;2022-10-16T08:51:08;5.40;;;1.83;;
42988;SDS011;28622;43.716;20.668;2022-10-16T08:56:45;3.22;;;1.48;;
42988;SDS011;28622;43.716;20.668;2022-10-16T08:59:11;1.48;;;1.20;;
42988;SDS011;28622;43.716;20.668;2022-10-16T09:01:40;2.53;;;1.27;;
42988;SDS011;28622;43.716;20.668;2022-10-16T09:07:01;2.20;;;0.82;;
42988;SDS011;28622;43.716;20.668;2022-10-16T09:25:55;2.00;;;0.88;;
42988;SDS011;28622;43.716;20.668;2022-10-16T09:28:23;4.07;;;1.35;;
42988;SDS011;28622;43.716;20.668;2022-10-16T09:30:49;2.58;;;1.27;;
42988;SDS011;28622;43.716;20.668;2022-10-16T09:33:16;3.03;;;1.52;;
42988;SDS011;28622;43.716;20.668;2022-10-16T09:35:48;2.17;;;1.33;;
42988;SDS011;28622;43.716;20.668;2022-10-16T09:38:24;4.20;;;1.30;;
42988;SDS011;28622;43.716;20.668;2022-10-16T09:40:58;2.65;;;1.17;;
42988;SDS011;28622;43.716;20.668;2022-10-16T09:43:38;1.98;;;1.27;;
42988;SDS011;28622;43.716;20.668;2022-10-16T09:46:21;3.22;;;1.90;;
42988;SDS011;28622;43.716;20.668;2022-10-16T09:48:56;3.80;;;1.33;;
42988;SDS011;28622;43.716;20.668;2022-10-16T09:51:25;3.35;;;1.55;;
42988;SDS011;28622;43.716;20.668;2022-10-16T09:53:54;3.63;;;1.63;;
42988;SDS011;28622;43.716;20.668;2022-10-16T09:56:32;2.63;;;1.55;;
42988;SDS011;28622;43.716;20.668;2022-10-16T09:59:02;2.45;;;1.25;;
42988;SDS011;28622;43.716;20.668;2022-10-16T10:01:36;2.88;;;1.13;;
42988;SDS011;28622;43.716;20.668;2022-10-16T10:04:07;2.63;;;1.50;;
42988;SDS011;28622;43.716;20.668;2022-10-16T10:06:34;3.30;;;1.60;;
42988;SDS011;28622;43.716;20.668;2022-10-16T10:09:42;2.63;;;1.60;;
42988;SDS011;28622;43.716;20.668;2022-10-16T10:12:17;1.80;;;1.00;;
42988;SDS011;28622;43.716;20.668;2022-10-16T10:14:51;2.33;;;1.13;;
42988;SDS011;28622;43.716;20.668;2022-10-16T10:17:24;4.78;;;1.58;;
42988;SDS011;28622;43.716;20.668;2022-10-16T10:19:55;4.22;;;1.98;;
42988;SDS011;28622;43.716;20.668;2022-10-16T10:38:50;2.42;;;1.20;;
42988;SDS011;28622;43.716;20.668;2022-10-16T10:46:35;3.00;;;1.20;;
42988;SDS011;28622;43.716;20.668;2022-10-16T10:57:02;1.63;;;1.35;;
42988;SDS011;28622;43.716;20.668;2022-10-16T11:08:26;2.72;;;1.27;;
42988;SDS011;28622;43.716;20.668;2022-10-16T11:11:02;1.52;;;0.98;;
42988;SDS011;28622;43.716;20.668;2022-10-16T11:13:43;2.45;;;1.30;;
42988;SDS011;28622;43.716;20.668;2022-10-16T11:16:54;2.05;;;1.17;;
42988;SDS011;28622;43.716;20.668;2022-10-16T11:19:45;2.72;;;1.40;;
42988;SDS011;28622;43.716;20.668;2022-10-16T11:28:09;2.65;;;1.33;;
42988;SDS011;28622;43.716;20.668;2022-10-16T11:31:04;2.05;;;1.17;;
42988;SDS011;28622;43.716;20.668;2022-10-16T11:36:49;4.90;;;1.23;;
42988;SDS011;28622;43.716;20.668;2022-10-16T11:39:21;2.65;;;0.88;;
42988;SDS011;28622;43.716;20.668;2022-10-16T11:48:32;1.90;;;0.95;;
42988;SDS011;28622;43.716;20.668;2022-10-16T11:50:52;1.60;;;1.17;;
42988;SDS011;28622;43.716;20.668;2022-10-16T11:53:29;3.63;;;1.17;;
42988;SDS011;28622;43.716;20.668;2022-10-16T11:56:18;2.42;;;1.10;;
42988;SDS011;28622;43.716;20.668;2022-10-16T11:58:59;1.88;;;0.90;;
42988;SDS011;28622;43.716;20.668;2022-10-16T12:01:33;3.10;;;1.50;;
42988;SDS011;28622;43.716;20.668;2022-10-16T12:07:21;4.68;;;1.27;;
42988;SDS011;28622;43.716;20.668;2022-10-16T12:09:51;1.88;;;1.25;;
42988;SDS011;28622;43.716;20.668;2022-10-16T12:15:03;1.70;;;0.93;;
42988;SDS011;28622;43.716;20.668;2022-10-16T12:17:59;6.00;;;1.42;;
42988;SDS011;28622;43.716;20.668;2022-10-16T12:22:56;2.20;;;1.00;;
42988;SDS011;28622;43.716;20.668;2022-10-16T12:27:55;2.85;;;1.38;;
42988;SDS011;28622;43.716;20.668;2022-10-16T12:30:27;2.20;;;1.10;;
42988;SDS011;28622;43.716;20.668;2022-10-16T12:32:56;2.17;;;1.25;;
42988;SDS011;28622;43.716;20.668;2022-10-16T12:35:25;2.63;;;1.63;;
42988;SDS011;28622;43.716;20.668;2022-10-16T12:38:07;1.67;;;1.00;;
42988;SDS011;28622;43.716;20.668;2022-10-16T12:40:44;1.05;;;0.85;;
42988;SDS011;28622;43.716;20.668;2022-10-16T12:43:26;2.22;;;1.25;;
42988;SDS011;28622;43.716;20.668;2022-10-16T12:48:40;3.75;;;1.52;;
42988;SDS011;28622;43.716;20.668;2022-10-16T12:57:18;3.67;;;1.23;;
42988;SDS011;28622;43.716;20.668;2022-10-16T13:11:17;1.52;;;1.20;;
42988;SDS011;28622;43.716;20.668;2022-10-16T13:22:25;1.77;;;1.15;;
42988;SDS011;28622;43.716;20.668;2022-10-16T13:27:56;3.45;;;1.83;;
42988;SDS011;28622;43.716;20.668;2022-10-16T13:30:55;2.22;;;1.50;;
42988;SDS011;28622;43.716;20.668;2022-10-16T13:35:59;2.92;;;1.30;;
42988;SDS011;28622;43.716;20.668;2022-10-16T13:38:26;1.42;;;1.15;;
42988;SDS011;28622;43.716;20.668;2022-10-16T13:41:01;2.10;;;1.30;;
42988;SDS011;28622;43.716;20.668;2022-10-16T13:43:38;3.08;;;1.38;;
42988;SDS011;28622;43.716;20.668;2022-10-16T13:46:13;3.03;;;1.40;;
42988;SDS011;28622;43.716;20.668;2022-10-16T13:48:41;1.98;;;1.20;;
42988;SDS011;28622;43.716;20.668;2022-10-16T13:53:37;2.00;;;1.17;;
42988;SDS011;28622;43.716;20.668;2022-10-16T13:56:05;4.40;;;1.23;;
42988;SDS011;28622;43.716;20.668;2022-10-16T13:58:33;5.35;;;1.73;;
42988;SDS011;28622;43.716;20.668;2022-10-16T14:01:00;2.45;;;1.13;;
42988;SDS011;28622;43.716;20.668;2022-10-16T14:03:28;3.60;;;1.15;;
42988;SDS011;28622;43.716;20.668;2022-10-16T14:05:56;3.30;;;1.48;;
42988;SDS011;28622;43.716;20.668;2022-10-16T14:08:25;2.88;;;1.38;;
42988;SDS011;28622;43.716;20.668;2022-10-16T14:10:53;1.23;;;0.85;;
42988;SDS011;28622;43.716;20.668;2022-10-16T14:16:09;2.08;;;1.25;;
42988;SDS011;28622;43.716;20.668;2022-10-16T14:18:44;4.90;;;2.13;;
42988;SDS011;28622;43.716;20.668;2022-10-16T14:23:41;2.45;;;1.35;;
42988;SDS011;28622;43.716;20.668;2022-10-16T14:28:38;2.50;;;1.45;;
42988;SDS011;28622;43.716;20.668;2022-10-16T14:33:49;3.03;;;1.88;;
42988;SDS011;28622;43.716;20.668;2022-10-16T14:36:15;3.13;;;1.92;;
42988;SDS011;28622;43.716;20.668;2022-10-16T14:39:48;2.78;;;1.88;;
42988;SDS011;28622;43.716;20.668;2022-10-16T14:41:49;3.13;;;1.73;;
42988;SDS011;28622;43.716;20.668;2022-10-16T14:44:19;4.78;;;2.10;;
42988;SDS011;28622;43.716;20.668;2022-10-16T14:46:51;4.70;;;2.13;;
42988;SDS011;28622;43.716;20.668;2022-10-16T14:49:17;4.97;;;1.98;;
42988;SDS011;28622;43.716;20.668;2022-10-16T14:51:45;4.95;;;2.58;;
42988;SDS011;28622;43.716;20.668;2022-10-16T14:54:12;6.32;;;2.65;;
42988;SDS011;28622;43.716;20.668;2022-10-16T15:01:59;3.78;;;1.77;;
42988;SDS011;28622;43.716;20.668;2022-10-16T15:04:25;4.10;;;2.47;;
42988;SDS011;28622;43.716;20.668;2022-10-16T15:06:51;3.85;;;2.28;;
42988;SDS011;28622;43.716;20.668;2022-10-16T15:09:17;8.38;;;2.72;;
42988;SDS011;28622;43.716;20.668;2022-10-16T15:11:43;9.93;;;2.75;;
42988;SDS011;28622;43.716;20.668;2022-10-16T15:14:12;4.93;;;2.55;;
42988;SDS011;28622;43.716;20.668;2022-10-16T15:16:38;6.70;;;2.38;;
42988;SDS011;28622;43.716;20.668;2022-10-16T15:19:04;6.22;;;2.58;;
42988;SDS011;28622;43.716;20.668;2022-10-16T15:21:30;5.03;;;2.40;;
42988;SDS011;28622;43.716;20.668;2022-10-16T15:23:58;6.95;;;2.90;;
42988;SDS011;28622;43.716;20.668;2022-10-16T15:26:25;6.35;;;2.92;;
42988;SDS011;28622;43.716;20.668;2022-10-16T15:28:52;5.45;;;2.80;;
42988;SDS011;28622;43.716;20.668;2022-10-16T15:31:19;5.28;;;3.35;;
42988;SDS011;28622;43.716;20.668;2022-10-16T15:33:46;6.22;;;3.10;;
42988;SDS011;28622;43.716;20.668;2022-10-16T15:36:24;8.60;;;3.60;;
42988;SDS011;28622;43.716;20.668;2022-10-16T15:38:53;6.80;;;3.25;;
42988;SDS011;28622;43.716;20.668;2022-10-16T15:41:20;7.68;;;4.07;;
42988;SDS011;28622;43.716;20.668;2022-10-16T15:43:47;10.52;;;5.00;;
42988;SDS011;28622;43.716;20.668;2022-10-16T15:46:14;10.35;;;4.97;;
42988;SDS011;28622;43.716;20.668;2022-10-16T15:48:42;9.32;;;4.22;;
42988;SDS011;28622;43.716;20.668;2022-10-16T15:51:08;10.25;;;4.55;;
42988;SDS011;28622;43.716;20.668;2022-10-16T15:53:34;10.20;;;3.65;;
42988;SDS011;28622;43.716;20.668;2022-10-16T15:56:01;8.80;;;4.10;;
42988;SDS011;28622;43.716;20.668;2022-10-16T15:58:28;10.18;;;5.00;;
42988;SDS011;28622;43.716;20.668;2022-10-16T16:00:58;13.32;;;5.38;;
42988;SDS011;28622;43.716;20.668;2022-10-16T16:03:26;11.48;;;5.85;;
42988;SDS011;28622;43.716;20.668;2022-10-16T16:05:52;17.05;;;6.50;;
42988;SDS011;28622;43.716;20.668;2022-10-16T16:08:19;21.58;;;6.10;;
42988;SDS011;28622;43.716;20.668;2022-10-16T16:10:44;14.73;;;6.35;;
42988;SDS011;28622;43.716;20.668;2022-10-16T16:13:10;15.27;;;7.38;;
42988;SDS011;28622;43.716;20.668;2022-10-16T16:15:39;22.52;;;8.98;;
42988;SDS011;28622;43.716;20.668;2022-10-16T16:18:05;16.45;;;9.55;;
42988;SDS011;28622;43.716;20.668;2022-10-16T16:20:32;25.83;;;10.68;;
42988;SDS011;28622;43.716;20.668;2022-10-16T16:22:57;27.33;;;13.82;;
42988;SDS011;28622;43.716;20.668;2022-10-16T16:25:23;32.08;;;14.45;;
42988;SDS011;28622;43.716;20.668;2022-10-16T16:27:49;33.13;;;17.02;;
42988;SDS011;28622;43.716;20.668;2022-10-16T16:30:15;44.78;;;19.80;;
42988;SDS011;28622;43.716;20.668;2022-10-16T16:32:43;39.55;;;17.63;;
42988;SDS011;28622;43.716;20.668;2022-10-16T16:35:09;52.58;;;23.08;;
42988;SDS011;28622;43.716;20.668;2022-10-16T16:37:35;33.65;;;15.38;;
42988;SDS011;28622;43.716;20.668;2022-10-16T16:40:00;27.88;;;13.90;;
42988;SDS011;28622;43.716;20.668;2022-10-16T16:42:27;48.78;;;21.17;;
42988;SDS011;28622;43.716;20.668;2022-10-16T16:44:53;23.95;;;10.50;;
42988;SDS011;28622;43.716;20.668;2022-10-16T16:47:19;20.30;;;10.07;;
42988;SDS011;28622;43.716;20.668;2022-10-16T16:49:45;12.30;;;5.90;;
42988;SDS011;28622;43.716;20.668;2022-10-16T16:52:13;34.65;;;14.68;;
42988;SDS011;28622;43.716;20.668;2022-10-16T16:54:39;27.75;;;11.98;;
42988;SDS011;28622;43.716;20.668;2022-10-16T16:57:05;51.47;;;23.58;;
42988;SDS011;28622;43.716;20.668;2022-10-16T16:59:31;30.77;;;15.38;;
42988;SDS011;28622;43.716;20.668;2022-10-16T17:01:59;42.95;;;18.65;;
42988;SDS011;28622;43.716;20.668;2022-10-16T17:04:25;44.13;;;16.95;;
42988;SDS011;28622;43.716;20.668;2022-10-16T17:06:53;58.38;;;24.40;;
42988;SDS011;28622;43.716;20.668;2022-10-16T17:09:19;50.00;;;20.42;;
42988;SDS011;28622;43.716;20.668;2022-10-16T17:11:46;28.13;;;13.13;;
42988;SDS011;28622;43.716;20.668;2022-10-16T17:14:13;25.27;;;11.77;;
42988;SDS011;28622;43.716;20.668;2022-10-16T17:16:39;22.50;;;11.48;;
42988;SDS011;28622;43.716;20.668;2022-10-16T17:19:10;25.55;;;12.35;;
42988;SDS011;28622;43.716;20.668;2022-10-16T17:21:38;35.15;;;16.08;;
42988;SDS011;28622;43.716;20.668;2022-10-16T17:24:04;29.42;;;13.98;;
42988;SDS011;28622;43.716;20.668;2022-10-16T17:26:30;29.40;;;13.50;;